Time;durP1;ratioP1;P1;durP2;ratioP2;P2;SDS_P1;SDS_P2;PMS_P1;PMS_P2;Temp;Humidity;BMP_temperature;BMP_pressure;BME280_temperature;BME280_humidity;BME280_pressure;Samples;Min_cycle;Max_cycle;Signal;HPM_P1;HPM_P2
2022/02/22 00:01:22;;;;;;;0.35;0.00;;;;;;;;;;4989939;28;20030;-61
2022/02/22 00:03:49;;;;;;;0.00;0.00;;;;;;;;;;4976898;28;20046;-61
2022/02/22 00:06:15;;;;;;;0.57;0.00;;;;;;;;;;4975818;28;20038;-61
2022/02/22 00:08:41;;;;;;;0.25;0.00;;;;;;;;;;4989167;28;20038;-62
2022/02/22 00:11:07;;;;;;;0.10;0.00;;;;;;;;;;4980889;28;20038;-61
2022/02/22 00:13:33;;;;;;;0.75;0.00;;;;;;;;;;4991580;28;20088;-61
2022/02/22 00:16:00;;;;;;;0.20;0.00;;;;;;;;;;4988339;28;20034;-60
2022/02/22 00:18:26;;;;;;;0.05;0.05;;;;;;;;;;4989654;28;20023;-61
2022/02/22 00:20:52;;;;;;;0.10;0.00;;;;;;;;;;4990478;28;20476;-61
2022/02/22 00:23:18;;;;;;;0.00;0.00;;;;;;;;;;4986310;28;20075;-61
2022/02/22 00:25:44;;;;;;;0.47;0.17;;;;;;;;;;4971800;28;20027;-61
2022/02/22 00:28:10;;;;;;;0.00;0.00;;;;;;;;;;4984803;28;20026;-61
2022/02/22 00:30:36;;;;;;;0.10;0.10;;;;;;;;;;4990492;28;20030;-61
2022/02/22 00:33:02;;;;;;;0.50;0.03;;;;;;;;;;4990944;28;20034;-61
2022/02/22 00:35:28;;;;;;;0.65;0.10;;;;;;;;;;4990164;28;20034;-60
2022/02/22 00:37:54;;;;;;;0.00;0.00;;;;;;;;;;4982748;28;20038;-60
2022/02/22 00:40:20;;;;;;;0.47;0.10;;;;;;;;;;4982515;28;20018;-61
2022/02/22 00:42:46;;;;;;;0.15;0.00;;;;;;;;;;4991529;28;20053;-61
2022/02/22 00:45:12;;;;;;;0.00;0.00;;;;;;;;;;4981263;28;20046;-61
2022/02/22 00:47:39;;;;;;;0.20;0.00;;;;;;;;;;4990056;28;20434;-61
2022/02/22 00:50:06;;;;;;;0.00;0.00;;;;;;;;;;4990278;28;20387;-61
2022/02/22 00:52:32;;;;;;;0.75;0.00;;;;;;;;;;4990048;28;20030;-61
2022/02/22 00:54:58;;;;;;;0.80;0.00;;;;;;;;;;4986979;28;20431;-61
2022/02/22 00:57:24;;;;;;;0.00;0.00;;;;;;;;;;4990013;28;20026;-61
2022/02/22 00:59:50;;;;;;;0.68;0.08;;;;;;;;;;4988091;28;20049;-61
2022/02/22 01:02:16;;;;;;;0.57;0.00;;;;;;;;;;4989847;28;20116;-61
2022/02/22 01:04:42;;;;;;;1.00;0.10;;;;;;;;;;4989505;28;20125;-61
2022/02/22 01:07:16;;;;;;;0.03;0.00;;;;;;;;;;4991015;28;20593;-61
2022/02/22 01:09:42;;;;;;;0.15;0.00;;;;;;;;;;4989020;28;20046;-60
2022/02/22 01:12:09;;;;;;;0.10;0.00;;;;;;;;;;4989726;28;20031;-60
2022/02/22 01:14:35;;;;;;;0.00;0.00;;;;;;;;;;4978510;28;20547;-60
2022/02/22 01:17:01;;;;;;;0.00;0.00;;;;;;;;;;4982015;28;20106;-60
2022/02/22 01:19:27;;;;;;;0.10;0.10;;;;;;;;;;4971132;28;20108;-61
2022/02/22 01:21:53;;;;;;;0.15;0.00;;;;;;;;;;4990952;28;20387;-60
2022/02/22 01:24:19;;;;;;;0.40;0.20;;;;;;;;;;4988060;28;20034;-61
2022/02/22 01:26:45;;;;;;;0.28;0.00;;;;;;;;;;4982697;28;20430;-61
2022/02/22 01:29:11;;;;;;;0.10;0.00;;;;;;;;;;4971952;28;20070;-60
2022/02/22 01:31:37;;;;;;;0.10;0.00;;;;;;;;;;4991839;28;20030;-60
2022/02/22 01:34:03;;;;;;;0.00;0.00;;;;;;;;;;4993856;28;20034;-60
2022/02/22 01:36:29;;;;;;;0.10;0.05;;;;;;;;;;4993007;28;20062;-61
2022/02/22 01:38:55;;;;;;;0.50;0.00;;;;;;;;;;4994208;28;20030;-61
2022/02/22 01:41:22;;;;;;;0.10;0.03;;;;;;;;;;4975700;28;20492;-61
2022/02/22 01:43:48;;;;;;;1.10;0.00;;;;;;;;;;4981819;28;20030;-60
2022/02/22 01:46:15;;;;;;;0.95;0.00;;;;;;;;;;4992818;28;20474;-61
2022/02/22 01:48:41;;;;;;;0.52;0.00;;;;;;;;;;4994343;28;20027;-60
2022/02/22 01:51:07;;;;;;;0.10;0.10;;;;;;;;;;4983884;28;20452;-61
2022/02/22 01:53:33;;;;;;;0.20;0.10;;;;;;;;;;4978864;28;20476;-61
2022/02/22 01:56:03;;;;;;;0.30;0.22;;;;;;;;;;4984979;28;20114;-60
2022/02/22 01:58:30;;;;;;;0.00;0.00;;;;;;;;;;4991794;28;20030;-60
2022/02/22 02:00:56;;;;;;;0.00;0.00;;;;;;;;;;4978552;28;20464;-61
2022/02/22 02:03:22;;;;;;;1.30;0.00;;;;;;;;;;4976655;28;20051;-60
2022/02/22 02:05:49;;;;;;;0.75;0.00;;;;;;;;;;4984502;28;20038;-61
2022/02/22 02:08:15;;;;;;;0.00;0.00;;;;;;;;;;4989236;28;20492;-61
2022/02/22 02:10:41;;;;;;;0.03;0.00;;;;;;;;;;4973038;28;20545;-61
2022/02/22 02:13:07;;;;;;;0.10;0.00;;;;;;;;;;4975296;28;20027;-60
2022/02/22 02:15:33;;;;;;;0.00;0.00;;;;;;;;;;4992285;28;20495;-60
2022/02/22 02:18:30;;;;;;;0.22;0.00;;;;;;;;;;4993568;28;20502;-61
2022/02/22 02:20:56;;;;;;;0.27;0.00;;;;;;;;;;4989805;28;20034;-61
2022/02/22 02:23:22;;;;;;;0.43;0.03;;;;;;;;;;4980374;28;20030;-60
2022/02/22 02:25:48;;;;;;;0.03;0.00;;;;;;;;;;4991945;28;20487;-61
2022/02/22 02:28:14;;;;;;;0.20;0.10;;;;;;;;;;4993478;28;20531;-60
2022/02/22 02:30:42;;;;;;;0.10;0.00;;;;;;;;;;4991879;28;20156;-60
2022/02/22 02:33:08;;;;;;;0.10;0.00;;;;;;;;;;4992968;28;20480;-60
2022/02/22 02:35:34;;;;;;;0.10;0.00;;;;;;;;;;4988535;28;20034;-60
2022/02/22 02:38:00;;;;;;;0.00;0.00;;;;;;;;;;4993342;28;20026;-60
2022/02/22 02:40:26;;;;;;;0.10;0.00;;;;;;;;;;4987138;28;20463;-60
2022/02/22 02:42:52;;;;;;;1.03;0.00;;;;;;;;;;4975616;28;20038;-61
2022/02/22 02:45:18;;;;;;;0.53;0.10;;;;;;;;;;4987402;28;20101;-61
2022/02/22 02:47:45;;;;;;;0.45;0.00;;;;;;;;;;4993012;28;20034;-60
2022/02/22 02:50:11;;;;;;;0.20;0.00;;;;;;;;;;4992143;28;20496;-60
2022/02/22 02:52:37;;;;;;;1.13;0.10;;;;;;;;;;4990852;28;20430;-60
2022/02/22 02:55:04;;;;;;;0.00;0.00;;;;;;;;;;4992334;28;20038;-61
2022/02/22 02:57:30;;;;;;;0.30;0.00;;;;;;;;;;4992010;28;20061;-60
2022/02/22 02:59:57;;;;;;;0.10;0.00;;;;;;;;;;4988617;28;20087;-60
2022/02/22 03:02:23;;;;;;;0.00;0.00;;;;;;;;;;4990615;28;20030;-61
2022/02/22 03:04:49;;;;;;;0.10;0.10;;;;;;;;;;4990349;28;20061;-60
2022/02/22 03:07:15;;;;;;;0.47;0.10;;;;;;;;;;4991783;28;20060;-60
2022/02/22 03:09:41;;;;;;;0.10;0.00;;;;;;;;;;4992361;28;20537;-61
2022/02/22 03:12:08;;;;;;;0.10;0.10;;;;;;;;;;4993067;28;20027;-60
2022/02/22 03:14:34;;;;;;;0.00;0.00;;;;;;;;;;4976648;28;20384;-61
2022/02/22 03:17:00;;;;;;;0.07;0.00;;;;;;;;;;4975117;28;20023;-61
2022/02/22 03:19:26;;;;;;;0.60;0.10;;;;;;;;;;4990426;28;20034;-60
2022/02/22 03:21:51;;;;;;;0.27;0.10;;;;;;;;;;4992035;28;20384;-60
2022/02/22 03:24:17;;;;;;;0.17;0.00;;;;;;;;;;4981077;28;20027;-60
2022/02/22 03:26:43;;;;;;;0.87;0.10;;;;;;;;;;4971813;28;20031;-60
2022/02/22 03:29:09;;;;;;;0.70;0.00;;;;;;;;;;4987120;28;20438;-60
2022/02/22 03:31:35;;;;;;;0.07;0.00;;;;;;;;;;4990974;28;20430;-60
2022/02/22 03:34:02;;;;;;;0.30;0.10;;;;;;;;;;4991483;28;20027;-60
2022/02/22 03:36:28;;;;;;;0.10;0.00;;;;;;;;;;4992314;28;20030;-60
2022/02/22 03:38:54;;;;;;;1.87;0.20;;;;;;;;;;4991214;28;20038;-60
2022/02/22 03:41:21;;;;;;;0.00;0.00;;;;;;;;;;4992468;28;20026;-61
2022/02/22 03:43:47;;;;;;;0.10;0.00;;;;;;;;;;4991245;28;20071;-60
2022/02/22 03:46:13;;;;;;;0.37;0.00;;;;;;;;;;4992544;28;20376;-60
2022/02/22 03:48:39;;;;;;;0.30;0.00;;;;;;;;;;4980121;28;20426;-60
2022/02/22 03:51:06;;;;;;;1.33;0.10;;;;;;;;;;4977771;28;20104;-61
2022/02/22 03:53:32;;;;;;;0.00;0.00;;;;;;;;;;4990830;28;20067;-60
2022/02/22 03:55:58;;;;;;;0.37;0.00;;;;;;;;;;4990886;28;20027;-60
2022/02/22 03:58:24;;;;;;;2.03;0.10;;;;;;;;;;4990922;28;20031;-61
2022/02/22 04:00:50;;;;;;;1.83;0.20;;;;;;;;;;4992269;28;20018;-60
2022/02/22 04:03:16;;;;;;;0.30;0.10;;;;;;;;;;4990754;28;20403;-60
2022/02/22 04:05:46;;;;;;;0.37;0.17;;;;;;;;;;4991929;28;20109;-60
2022/02/22 04:08:12;;;;;;;1.20;0.00;;;;;;;;;;4989592;28;20038;-60
2022/02/22 04:10:38;;;;;;;0.10;0.00;;;;;;;;;;4991675;28;20042;-60
2022/02/22 04:13:04;;;;;;;0.00;0.00;;;;;;;;;;4991392;28;20076;-61
2022/02/22 04:15:30;;;;;;;3.90;0.10;;;;;;;;;;4991285;28;20510;-61
2022/02/22 04:17:56;;;;;;;0.73;0.10;;;;;;;;;;4990669;28;20105;-61
2022/02/22 04:20:22;;;;;;;0.20;0.10;;;;;;;;;;4990772;28;20400;-60
2022/02/22 04:22:48;;;;;;;0.10;0.00;;;;;;;;;;4990711;28;20026;-61
2022/02/22 04:25:14;;;;;;;2.40;0.10;;;;;;;;;;4989447;28;20072;-60
2022/02/22 04:27:40;;;;;;;0.00;0.00;;;;;;;;;;4980723;28;20030;-60
2022/02/22 04:30:07;;;;;;;0.83;0.07;;;;;;;;;;4991576;28;20035;-60
2022/02/22 04:32:33;;;;;;;1.20;0.07;;;;;;;;;;4991871;28;20026;-61
2022/02/22 04:34:59;;;;;;;0.37;0.10;;;;;;;;;;4990432;28;20040;-60
2022/02/22 04:37:25;;;;;;;0.67;0.33;;;;;;;;;;4990718;28;20121;-60
2022/02/22 04:39:51;;;;;;;0.67;0.00;;;;;;;;;;4990453;28;20050;-60
2022/02/22 04:42:18;;;;;;;1.47;0.10;;;;;;;;;;4991559;28;20492;-61
2022/02/22 04:44:44;;;;;;;1.07;0.30;;;;;;;;;;4990532;28;20391;-61
2022/02/22 04:47:10;;;;;;;0.00;0.00;;;;;;;;;;4989101;28;20041;-61
2022/02/22 04:49:37;;;;;;;0.77;0.10;;;;;;;;;;4990570;28;20080;-60
2022/02/22 04:52:04;;;;;;;1.13;0.10;;;;;;;;;;4990109;28;20026;-60
2022/02/22 04:54:30;;;;;;;0.90;0.10;;;;;;;;;;4990391;28;20035;-60
2022/02/22 04:56:56;;;;;;;1.07;0.10;;;;;;;;;;4986868;28;20019;-60
2022/02/22 04:59:24;;;;;;;0.30;0.07;;;;;;;;;;4984196;28;20039;-61
2022/02/22 05:01:50;;;;;;;1.13;0.20;;;;;;;;;;4991508;28;20129;-61
2022/02/22 05:04:16;;;;;;;1.07;0.37;;;;;;;;;;4988887;28;20062;-60
2022/02/22 05:06:42;;;;;;;1.73;0.10;;;;;;;;;;4990529;28;20038;-61
2022/02/22 05:09:08;;;;;;;1.43;0.20;;;;;;;;;;4987805;28;20058;-61
2022/02/22 05:11:35;;;;;;;1.83;0.17;;;;;;;;;;4990918;28;20030;-61
2022/02/22 05:14:03;;;;;;;0.10;0.10;;;;;;;;;;4989803;28;20136;-61
2022/02/22 05:22:44;;;;;;;0.83;0.23;;;;;;;;;;4978345;28;20384;-61
2022/02/22 05:25:10;;;;;;;0.20;0.10;;;;;;;;;;4972066;28;20042;-61
2022/02/22 05:27:36;;;;;;;0.10;0.10;;;;;;;;;;4972724;28;20042;-61
2022/02/22 05:30:03;;;;;;;0.43;0.10;;;;;;;;;;4985353;28;20471;-61
2022/02/22 05:32:30;;;;;;;1.30;0.20;;;;;;;;;;4989127;28;20026;-61
2022/02/22 05:34:56;;;;;;;0.70;0.10;;;;;;;;;;4987687;28;20038;-61
2022/02/22 05:37:22;;;;;;;0.30;0.10;;;;;;;;;;4990823;28;20149;-61
2022/02/22 05:39:49;;;;;;;0.30;0.10;;;;;;;;;;4976605;28;20472;-61
2022/02/22 05:42:29;;;;;;;0.70;0.33;;;;;;;;;;4974061;28;20437;-61
2022/02/22 05:44:55;;;;;;;1.07;0.20;;;;;;;;;;4984876;28;20038;-61
2022/02/22 05:47:30;;;;;;;2.30;0.20;;;;;;;;;;4990655;28;20054;-61
2022/02/22 05:49:56;;;;;;;0.70;0.10;;;;;;;;;;4989567;28;20042;-61
2022/02/22 05:52:22;;;;;;;0.93;0.43;;;;;;;;;;4987297;28;20022;-61
2022/02/22 05:54:48;;;;;;;0.47;0.10;;;;;;;;;;4979674;28;20388;-61
2022/02/22 05:57:14;;;;;;;0.73;0.23;;;;;;;;;;4970971;28;20031;-61
2022/02/22 05:59:40;;;;;;;2.73;0.30;;;;;;;;;;4979918;28;20032;-61
2022/02/22 06:02:06;;;;;;;0.20;0.10;;;;;;;;;;4985440;28;20041;-61
2022/02/22 06:04:32;;;;;;;0.63;0.20;;;;;;;;;;4988911;28;20486;-60
2022/02/22 06:06:59;;;;;;;2.07;0.10;;;;;;;;;;4990545;28;20050;-61
2022/02/22 06:09:25;;;;;;;0.93;0.40;;;;;;;;;;4989697;28;20133;-61
2022/02/22 06:11:51;;;;;;;1.57;0.30;;;;;;;;;;4988974;28;20460;-61
2022/02/22 06:14:17;;;;;;;2.13;0.10;;;;;;;;;;4977501;28;20048;-61
2022/02/22 06:16:43;;;;;;;1.77;0.20;;;;;;;;;;4973786;28;20019;-61
2022/02/22 06:19:09;;;;;;;2.43;0.27;;;;;;;;;;4987700;28;20533;-61
2022/02/22 06:21:35;;;;;;;2.63;0.10;;;;;;;;;;4984194;28;20041;-61
2022/02/22 06:24:01;;;;;;;3.70;0.20;;;;;;;;;;4992419;28;20045;-60
2022/02/22 06:26:27;;;;;;;1.25;0.17;;;;;;;;;;4990124;28;20058;-61
2022/02/22 06:28:53;;;;;;;6.67;0.40;;;;;;;;;;4992148;28;20026;-60
2022/02/22 06:31:19;;;;;;;0.30;0.10;;;;;;;;;;4987991;28;20022;-60
2022/02/22 06:33:45;;;;;;;1.03;0.13;;;;;;;;;;4987938;28;20037;-60
2022/02/22 06:36:11;;;;;;;0.20;0.20;;;;;;;;;;4987959;28;20109;-60
2022/02/22 06:38:37;;;;;;;0.20;0.13;;;;;;;;;;4976654;28;20547;-60
2022/02/22 06:41:04;;;;;;;1.07;0.30;;;;;;;;;;4988631;28;20035;-60
2022/02/22 06:43:30;;;;;;;0.27;0.27;;;;;;;;;;4992127;28;20054;-60
2022/02/22 06:45:56;;;;;;;0.37;0.20;;;;;;;;;;4991860;28;20031;-60
2022/02/22 06:48:22;;;;;;;2.40;0.27;;;;;;;;;;4959373;28;20034;-60
2022/02/22 06:50:48;;;;;;;1.13;0.20;;;;;;;;;;4978134;28;20038;-60
2022/02/22 06:53:14;;;;;;;0.20;0.10;;;;;;;;;;4992538;28;20114;-60
2022/02/22 06:55:40;;;;;;;1.50;0.20;;;;;;;;;;4991656;28;20433;-61
2022/02/22 06:58:07;;;;;;;0.40;0.20;;;;;;;;;;4993067;28;20034;-61
2022/02/22 07:00:34;;;;;;;0.17;0.10;;;;;;;;;;4991533;28;20030;-61
2022/02/22 07:03:02;;;;;;;1.10;0.27;;;;;;;;;;4988529;28;20503;-61
2022/02/22 07:05:28;;;;;;;0.30;0.17;;;;;;;;;;4991859;28;20038;-61
2022/02/22 07:07:56;;;;;;;2.57;0.20;;;;;;;;;;4993139;28;20042;-61
2022/02/22 07:10:22;;;;;;;1.63;0.20;;;;;;;;;;4990469;28;20053;-61
2022/02/22 07:12:48;;;;;;;2.47;0.30;;;;;;;;;;4986448;28;20484;-61
2022/02/22 07:15:14;;;;;;;1.43;0.30;;;;;;;;;;4983091;28;20037;-61
2022/02/22 07:17:45;;;;;;;2.97;0.20;;;;;;;;;;4991952;28;20023;-60
2022/02/22 07:20:11;;;;;;;2.03;0.43;;;;;;;;;;4991243;28;20106;-61
2022/02/22 07:22:39;;;;;;;4.47;0.22;;;;;;;;;;4989725;28;20022;-61
2022/02/22 07:25:05;;;;;;;2.83;0.23;;;;;;;;;;4990687;28;20165;-61
2022/02/22 07:27:31;;;;;;;2.07;0.20;;;;;;;;;;4978675;28;20018;-61
2022/02/22 07:29:57;;;;;;;2.47;0.40;;;;;;;;;;4984384;28;20438;-61
2022/02/22 07:32:23;;;;;;;1.70;0.87;;;;;;;;;;4983438;28;20022;-61
2022/02/22 07:34:49;;;;;;;1.80;0.38;;;;;;;;;;4984829;28;20038;-61
2022/02/22 07:37:15;;;;;;;1.88;0.45;;;;;;;;;;4990813;28;20037;-62
2022/02/22 07:39:41;;;;;;;2.43;0.20;;;;;;;;;;4988827;28;20121;-61
2022/02/22 07:42:07;;;;;;;0.35;0.10;;;;;;;;;;4987264;28;20030;-62
2022/02/22 07:44:33;;;;;;;0.68;0.20;;;;;;;;;;4997479;28;20034;-61
2022/02/22 07:46:59;;;;;;;1.98;0.20;;;;;;;;;;5023099;28;20113;-61
2022/02/22 07:49:53;;;;;;;0.77;0.30;;;;;;;;;;4973364;28;20121;-61
2022/02/22 07:52:19;;;;;;;2.25;0.30;;;;;;;;;;4971777;28;20062;-62
2022/02/22 07:54:45;;;;;;;2.50;0.57;;;;;;;;;;4988030;28;20516;-62
2022/02/22 07:57:12;;;;;;;1.75;0.70;;;;;;;;;;4983487;28;20046;-62
2022/02/22 07:59:38;;;;;;;1.55;0.30;;;;;;;;;;4980660;28;20026;-62
2022/02/22 08:02:04;;;;;;;2.38;0.32;;;;;;;;;;4977175;28;20493;-62
2022/02/22 08:04:30;;;;;;;0.43;0.20;;;;;;;;;;4980507;28;20078;-61
2022/02/22 08:06:57;;;;;;;0.70;0.20;;;;;;;;;;4989713;28;20045;-61
2022/02/22 08:09:24;;;;;;;2.08;0.50;;;;;;;;;;4989924;28;20374;-62
2022/02/22 08:11:50;;;;;;;2.08;0.40;;;;;;;;;;4987626;28;20026;-61
2022/02/22 08:14:16;;;;;;;0.75;0.20;;;;;;;;;;4989278;28;20398;-61
2022/02/22 08:16:42;;;;;;;2.75;1.00;;;;;;;;;;4985929;28;20022;-61
2022/02/22 08:19:08;;;;;;;2.05;0.32;;;;;;;;;;4988258;28;20109;-61
2022/02/22 08:21:34;;;;;;;1.90;0.20;;;;;;;;;;4987631;28;20117;-61
2022/02/22 08:24:00;;;;;;;3.42;0.50;;;;;;;;;;4990294;28;20422;-61
2022/02/22 08:26:26;;;;;;;3.53;0.50;;;;;;;;;;4977284;28;20031;-62
2022/02/22 08:28:52;;;;;;;7.30;0.40;;;;;;;;;;4975660;28;20448;-61
2022/02/22 08:31:19;;;;;;;1.45;0.63;;;;;;;;;;4974385;28;20111;-62
2022/02/22 08:33:45;;;;;;;2.38;0.52;;;;;;;;;;4984500;28;20022;-62
2022/02/22 08:36:12;;;;;;;3.17;0.65;;;;;;;;;;4989251;28;20049;-62
2022/02/22 08:38:39;;;;;;;1.92;0.57;;;;;;;;;;4988704;28;20025;-62
2022/02/22 08:41:05;;;;;;;2.88;0.50;;;;;;;;;;4990791;28;20053;-62
2022/02/22 08:43:32;;;;;;;2.33;0.20;;;;;;;;;;4989704;28;20131;-63
2022/02/22 08:45:59;;;;;;;1.05;0.20;;;;;;;;;;4986522;28;20034;-61
2022/02/22 08:48:25;;;;;;;2.45;0.32;;;;;;;;;;4988603;28;20414;-62
2022/02/22 08:50:52;;;;;;;1.45;0.40;;;;;;;;;;4988699;28;20037;-62
2022/02/22 08:53:18;;;;;;;1.15;0.32;;;;;;;;;;4987539;28;20475;-62
2022/02/22 08:55:44;;;;;;;0.63;0.20;;;;;;;;;;4978813;28;20038;-62
2022/02/22 08:58:10;;;;;;;3.22;0.30;;;;;;;;;;4981852;28;20041;-62
2022/02/22 09:00:36;;;;;;;2.38;0.50;;;;;;;;;;4989082;28;20406;-62
2022/02/22 09:03:03;;;;;;;1.00;0.50;;;;;;;;;;4989609;28;20045;-62
2022/02/22 09:05:29;;;;;;;0.30;0.20;;;;;;;;;;4989774;28;20071;-62
2022/02/22 09:07:56;;;;;;;1.35;0.25;;;;;;;;;;4989986;28;20620;-62
2022/02/22 09:10:22;;;;;;;0.03;0.00;;;;;;;;;;4990123;28;20038;-62
2022/02/22 09:12:49;;;;;;;0.77;0.25;;;;;;;;;;4989437;28;20064;-61
2022/02/22 09:15:16;;;;;;;1.08;0.20;;;;;;;;;;4988922;28;20065;-61
2022/02/22 09:17:43;;;;;;;1.13;0.20;;;;;;;;;;4981813;28;20180;-62
2022/02/22 09:20:10;;;;;;;2.90;0.35;;;;;;;;;;4982912;28;20034;-62
2022/02/22 09:22:36;;;;;;;1.80;0.30;;;;;;;;;;4988714;28;20027;-62
2022/02/22 09:25:03;;;;;;;0.57;0.30;;;;;;;;;;4988417;28;20523;-61
2022/02/22 09:27:29;;;;;;;1.40;0.25;;;;;;;;;;4990189;28;20022;-62
2022/02/22 09:29:55;;;;;;;1.27;0.17;;;;;;;;;;4989284;28;20041;-62
2022/02/22 09:32:23;;;;;;;0.40;0.10;;;;;;;;;;4992329;28;20018;-62
2022/02/22 09:34:49;;;;;;;0.22;0.03;;;;;;;;;;4989074;28;20022;-62
2022/02/22 09:37:15;;;;;;;3.05;0.10;;;;;;;;;;4989429;28;20498;-62
2022/02/22 09:39:41;;;;;;;0.68;0.17;;;;;;;;;;4977617;28;20031;-62
2022/02/22 09:42:07;;;;;;;1.08;0.10;;;;;;;;;;4972868;28;20035;-62
2022/02/22 09:44:35;;;;;;;3.47;0.20;;;;;;;;;;4989275;28;20037;-62
2022/02/22 09:47:01;;;;;;;0.10;0.10;;;;;;;;;;4980009;28;20015;-62
2022/02/22 09:49:27;;;;;;;0.60;0.20;;;;;;;;;;4979100;28;20034;-62
2022/02/22 09:51:54;;;;;;;2.85;0.20;;;;;;;;;;4993632;28;20492;-62
2022/02/22 09:54:21;;;;;;;2.17;0.60;;;;;;;;;;4989164;28;20038;-62
2022/02/22 09:56:47;;;;;;;2.28;0.70;;;;;;;;;;4992348;28;20071;-62
2022/02/22 09:59:13;;;;;;;0.57;0.38;;;;;;;;;;4990826;28;20022;-62
2022/02/22 10:01:43;;;;;;;3.10;0.38;;;;;;;;;;4993404;28;20038;-62
2022/02/22 10:04:09;;;;;;;1.85;0.20;;;;;;;;;;4991590;28;20058;-62
2022/02/22 10:06:36;;;;;;;0.98;0.10;;;;;;;;;;4993354;28;20060;-62
2022/02/22 10:09:03;;;;;;;1.38;0.25;;;;;;;;;;4990526;28;20129;-62
2022/02/22 10:11:30;;;;;;;0.17;0.10;;;;;;;;;;4993076;28;20026;-62
2022/02/22 10:14:00;;;;;;;1.52;0.50;;;;;;;;;;4991204;28;20083;-62
2022/02/22 10:16:27;;;;;;;1.23;0.70;;;;;;;;;;4972530;28;20053;-62
2022/02/22 10:18:53;;;;;;;0.50;0.30;;;;;;;;;;4992187;28;20030;-62
2022/02/22 10:21:20;;;;;;;1.95;0.82;;;;;;;;;;4992770;28;20037;-61
2022/02/22 10:23:46;;;;;;;5.40;0.50;;;;;;;;;;4985186;28;20033;-62
2022/02/22 10:26:20;;;;;;;1.08;0.60;;;;;;;;;;4986440;28;20109;-62
2022/02/22 10:28:46;;;;;;;1.10;0.73;;;;;;;;;;4988887;28;20019;-62
2022/02/22 10:31:12;;;;;;;0.57;0.10;;;;;;;;;;4992077;28;20038;-61
2022/02/22 10:34:13;;;;;;;1.98;0.10;;;;;;;;;;4991310;28;20022;-61
2022/02/22 10:36:40;;;;;;;0.40;0.03;;;;;;;;;;4974014;28;20027;-61
2022/02/22 10:39:08;;;;;;;1.92;0.28;;;;;;;;;;4988364;28;20139;-62
2022/02/22 10:41:35;;;;;;;0.40;0.22;;;;;;;;;;4990945;28;20053;-61
2022/02/22 10:44:02;;;;;;;0.80;0.20;;;;;;;;;;4988382;28;20031;-61
2022/02/22 10:46:31;;;;;;;1.60;0.80;;;;;;;;;;4988411;28;20412;-61
2022/02/22 10:49:08;;;;;;;2.58;1.40;;;;;;;;;;4992289;28;20123;-61
2022/02/22 10:51:35;;;;;;;0.65;0.20;;;;;;;;;;4985392;28;20050;-61
2022/02/22 10:54:01;;;;;;;1.17;0.13;;;;;;;;;;4984945;28;20050;-61
2022/02/22 10:56:30;;;;;;;2.00;1.80;;;;;;;;;;4983605;28;20480;-62
2022/02/22 10:58:57;;;;;;;3.97;3.15;;;;;;;;;;4996511;28;20484;-62
2022/02/22 11:01:23;;;;;;;1.92;1.50;;;;;;;;;;4985060;28;20488;-62
2022/02/22 11:03:50;;;;;;;1.08;0.32;;;;;;;;;;4985257;28;20131;-62
2022/02/22 11:06:41;;;;;;;0.82;0.28;;;;;;;;;;4985043;28;20514;-62
2022/02/22 11:09:13;;;;;;;1.65;0.30;;;;;;;;;;4982221;28;20042;-62
2022/02/22 11:11:41;;;;;;;0.10;0.03;;;;;;;;;;4989118;28;20349;-62
2022/02/22 11:14:13;;;;;;;0.40;0.17;;;;;;;;;;4986468;28;20034;-62
2022/02/22 11:16:47;;;;;;;0.52;0.30;;;;;;;;;;4983411;28;20053;-62
2022/02/22 11:19:19;;;;;;;1.45;0.30;;;;;;;;;;4983261;28;20495;-62
2022/02/22 11:21:46;;;;;;;1.05;0.30;;;;;;;;;;4988613;28;20050;-62
2022/02/22 11:24:12;;;;;;;0.30;0.20;;;;;;;;;;4987285;28;20018;-62
2022/02/22 11:26:44;;;;;;;2.55;0.85;;;;;;;;;;4980997;28;20038;-62
2022/02/22 11:29:10;;;;;;;0.35;0.17;;;;;;;;;;4990764;28;20041;-62
2022/02/22 11:31:36;;;;;;;0.10;0.10;;;;;;;;;;4982818;28;20042;-62
2022/02/22 11:34:04;;;;;;;1.98;0.17;;;;;;;;;;4983124;28;20061;-62
2022/02/22 11:36:32;;;;;;;0.82;0.20;;;;;;;;;;4986709;28;20067;-62
2022/02/22 11:39:32;;;;;;;0.65;0.15;;;;;;;;;;4984189;28;20476;-62
2022/02/22 11:41:59;;;;;;;0.57;0.20;;;;;;;;;;4982717;28;20027;-62
2022/02/22 11:44:26;;;;;;;2.08;0.57;;;;;;;;;;4988835;28;20018;-62
2022/02/22 11:46:54;;;;;;;0.45;0.38;;;;;;;;;;4983418;28;20095;-62
2022/02/22 11:49:31;;;;;;;1.60;0.40;;;;;;;;;;4982759;28;20477;-62
2022/02/22 11:52:11;;;;;;;0.70;0.30;;;;;;;;;;4981847;28;20030;-62
2022/02/22 11:54:37;;;;;;;1.20;0.10;;;;;;;;;;4983745;28;20031;-62
2022/02/22 11:57:15;;;;;;;0.38;0.25;;;;;;;;;;4985154;28;20034;-63
2022/02/22 11:59:49;;;;;;;0.50;0.20;;;;;;;;;;4982925;28;20035;-62
2022/02/22 12:02:26;;;;;;;1.05;0.70;;;;;;;;;;4988380;28;20050;-61
2022/02/22 12:04:52;;;;;;;1.55;0.20;;;;;;;;;;4981437;28;20130;-62
2022/02/22 12:07:36;;;;;;;1.10;0.20;;;;;;;;;;4983197;28;20036;-62
2022/02/22 12:10:07;;;;;;;1.80;0.52;;;;;;;;;;4983263;28;20193;-61
2022/02/22 12:12:34;;;;;;;3.03;0.60;;;;;;;;;;4993705;28;20026;-61
2022/02/22 12:15:00;;;;;;;2.40;0.20;;;;;;;;;;4979282;28;20472;-62
2022/02/22 12:17:26;;;;;;;0.73;0.30;;;;;;;;;;4982346;28;20071;-71
2022/02/22 12:19:56;;;;;;;0.30;0.20;;;;;;;;;;4982159;28;20121;-56
2022/02/22 12:22:23;;;;;;;0.28;0.05;;;;;;;;;;4982805;28;20035;-60
2022/02/22 12:25:03;;;;;;;2.30;0.60;;;;;;;;;;4981259;28;20497;-61
2022/02/22 12:27:30;;;;;;;1.35;0.70;;;;;;;;;;4975495;28;20077;-61
2022/02/22 12:29:56;;;;;;;0.70;0.40;;;;;;;;;;4990012;28;20480;-61
2022/02/22 12:32:23;;;;;;;0.93;0.50;;;;;;;;;;4989467;28;20459;-61
2022/02/22 12:34:51;;;;;;;1.85;0.40;;;;;;;;;;4991176;28;20472;-61
2022/02/22 12:37:18;;;;;;;1.35;0.50;;;;;;;;;;4990209;28;20105;-61
2022/02/22 12:39:44;;;;;;;1.58;1.00;;;;;;;;;;4982698;28;20117;-61
2022/02/22 12:42:11;;;;;;;0.70;0.60;;;;;;;;;;4975335;28;20041;-61
2022/02/22 12:44:39;;;;;;;1.15;0.30;;;;;;;;;;4971917;28;20027;-62
2022/02/22 12:47:05;;;;;;;2.55;0.50;;;;;;;;;;4985736;28;20030;-61
2022/02/22 12:49:31;;;;;;;0.47;0.17;;;;;;;;;;4991028;28;20062;-61
2022/02/22 12:52:02;;;;;;;1.25;0.47;;;;;;;;;;4989628;28;20031;-61
2022/02/22 12:54:28;;;;;;;3.97;0.50;;;;;;;;;;4988579;28;20026;-61
2022/02/22 12:57:00;;;;;;;1.80;0.68;;;;;;;;;;4984182;28;20030;-61
2022/02/22 12:59:27;;;;;;;1.90;0.40;;;;;;;;;;4991229;28;20030;-61
2022/02/22 13:01:55;;;;;;;1.08;0.63;;;;;;;;;;4989127;28;20045;-60
2022/02/22 13:04:22;;;;;;;2.03;1.20;;;;;;;;;;4989174;28;20065;-60
2022/02/22 13:06:52;;;;;;;2.58;0.60;;;;;;;;;;4988565;28;20041;-60
2022/02/22 13:09:20;;;;;;;0.20;0.20;;;;;;;;;;4979270;28;20027;-60
2022/02/22 13:11:49;;;;;;;0.70;0.40;;;;;;;;;;4988677;28;20403;-59
2022/02/22 13:14:16;;;;;;;1.95;0.47;;;;;;;;;;4989623;28;20022;-60
2022/02/22 13:16:55;;;;;;;2.25;0.30;;;;;;;;;;4991294;28;20034;-60
2022/02/22 13:19:33;;;;;;;0.77;0.50;;;;;;;;;;4990973;28;20031;-60
2022/02/22 13:21:59;;;;;;;1.02;0.57;;;;;;;;;;4987645;28;20058;-60
2022/02/22 13:24:26;;;;;;;2.83;1.10;;;;;;;;;;4983350;28;20155;-60
2022/02/22 13:26:53;;;;;;;1.23;0.68;;;;;;;;;;4987249;28;20121;-60
2022/02/22 13:29:19;;;;;;;0.40;0.40;;;;;;;;;;4986937;28;20053;-58
2022/02/22 13:31:45;;;;;;;0.98;0.40;;;;;;;;;;4983893;28;20093;-60
2022/02/22 13:34:16;;;;;;;0.40;0.20;;;;;;;;;;4969616;28;20038;-61
2022/02/22 13:36:44;;;;;;;1.17;0.70;;;;;;;;;;4985496;28;20030;-61
2022/02/22 13:39:11;;;;;;;1.55;0.20;;;;;;;;;;4981157;28;20115;-60
2022/02/22 13:41:42;;;;;;;5.68;0.55;;;;;;;;;;4985809;28;20083;-60
2022/02/22 13:44:09;;;;;;;1.35;0.20;;;;;;;;;;4988267;28;20037;-60
2022/02/22 13:46:37;;;;;;;1.67;0.30;;;;;;;;;;4982669;28;20038;-60
2022/02/22 13:49:04;;;;;;;0.20;0.20;;;;;;;;;;4986291;28;20113;-60
2022/02/22 13:51:42;;;;;;;0.57;0.28;;;;;;;;;;4979663;28;20575;-59
2022/02/22 13:54:14;;;;;;;0.28;0.28;;;;;;;;;;4981920;28;20498;-60
2022/02/22 13:56:42;;;;;;;3.15;0.32;;;;;;;;;;4983977;28;20022;-61
2022/02/22 13:59:09;;;;;;;0.38;0.30;;;;;;;;;;4983353;28;20038;-60
2022/02/22 14:01:49;;;;;;;0.93;0.65;;;;;;;;;;4981299;28;20415;-60
2022/02/22 14:04:16;;;;;;;1.05;0.30;;;;;;;;;;4981263;28;20126;-60
2022/02/22 14:06:42;;;;;;;2.45;0.30;;;;;;;;;;4983215;28;20022;-60
2022/02/22 14:09:08;;;;;;;0.20;0.20;;;;;;;;;;4978878;28;20027;-60
2022/02/22 14:11:53;;;;;;;0.20;0.20;;;;;;;;;;4979930;28;20023;-61
2022/02/22 14:14:19;;;;;;;1.05;0.45;;;;;;;;;;4986997;28;20018;-61
2022/02/22 14:16:45;;;;;;;3.08;0.43;;;;;;;;;;4983385;28;20164;-61
2022/02/22 14:19:11;;;;;;;1.08;0.40;;;;;;;;;;4986873;28;20370;-61
2022/02/22 14:21:37;;;;;;;2.05;0.30;;;;;;;;;;4989852;28;20062;-60
2022/02/22 14:24:04;;;;;;;2.00;0.47;;;;;;;;;;4980860;28;20084;-60
2022/02/22 14:26:30;;;;;;;0.55;0.30;;;;;;;;;;4982467;28;20037;-60
2022/02/22 14:28:56;;;;;;;1.10;0.57;;;;;;;;;;4984667;28;20027;-60
2022/02/22 14:31:22;;;;;;;1.05;0.60;;;;;;;;;;4979023;28;20527;-61
2022/02/22 14:33:48;;;;;;;2.72;0.32;;;;;;;;;;4982246;28;20027;-60
2022/02/22 14:36:15;;;;;;;0.40;0.32;;;;;;;;;;4980209;28;20079;-61
2022/02/22 14:38:41;;;;;;;0.63;0.38;;;;;;;;;;4983471;28;20034;-61
2022/02/22 14:41:08;;;;;;;1.52;0.60;;;;;;;;;;4982360;28;20069;-60
2022/02/22 14:43:35;;;;;;;1.55;0.55;;;;;;;;;;4982340;28;20184;-60
2022/02/22 14:46:02;;;;;;;1.05;0.70;;;;;;;;;;4983570;28;20105;-60
2022/02/22 14:48:28;;;;;;;0.85;0.50;;;;;;;;;;4982961;28;20400;-60
2022/02/22 14:50:55;;;;;;;1.50;0.80;;;;;;;;;;4988279;28;20038;-60